sensor_id;sensor_type;location;lat;lon;timestamp;P1;durP1;ratioP1;P2;durP2;ratioP2
21334;SDS011;10826;52.536;13.432;2022-12-16T00:02:02;47.67;;;22.67;;
21334;SDS011;10826;52.536;13.432;2022-12-16T00:04:29;43.27;;;20.23;;
21334;SDS011;10826;52.536;13.432;2022-12-16T00:06:55;47.40;;;21.77;;
21334;SDS011;10826;52.536;13.432;2022-12-16T00:09:20;45.93;;;21.93;;
21334;SDS011;10826;52.536;13.432;2022-12-16T00:11:46;49.60;;;21.93;;
21334;SDS011;10826;52.536;13.432;2022-12-16T00:14:12;46.57;;;21.93;;
21334;SDS011;10826;52.536;13.432;2022-12-16T00:16:38;49.73;;;22.87;;
21334;SDS011;10826;52.536;13.432;2022-12-16T00:19:03;52.60;;;22.40;;
21334;SDS011;10826;52.536;13.432;2022-12-16T00:21:29;42.67;;;21.53;;
21334;SDS011;10826;52.536;13.432;2022-12-16T00:23:56;46.40;;;22.80;;
21334;SDS011;10826;52.536;13.432;2022-12-16T00:26:22;46.93;;;22.10;;
21334;SDS011;10826;52.536;13.432;2022-12-16T00:28:48;49.97;;;22.20;;
21334;SDS011;10826;52.536;13.432;2022-12-16T00:31:14;43.97;;;21.80;;
21334;SDS011;10826;52.536;13.432;2022-12-16T00:33:40;44.83;;;22.17;;
21334;SDS011;10826;52.536;13.432;2022-12-16T00:36:06;45.97;;;22.17;;
21334;SDS011;10826;52.536;13.432;2022-12-16T00:38:33;45.80;;;21.50;;
21334;SDS011;10826;52.536;13.432;2022-12-16T00:40:59;43.03;;;21.97;;
21334;SDS011;10826;52.536;13.432;2022-12-16T00:43:25;45.77;;;22.67;;
21334;SDS011;10826;52.536;13.432;2022-12-16T00:45:50;42.60;;;21.13;;
21334;SDS011;10826;52.536;13.432;2022-12-16T00:48:16;42.80;;;20.97;;
21334;SDS011;10826;52.536;13.432;2022-12-16T00:50:51;41.77;;;21.27;;
21334;SDS011;10826;52.536;13.432;2022-12-16T00:53:22;46.90;;;21.30;;
21334;SDS011;10826;52.536;13.432;2022-12-16T00:55:49;47.43;;;22.60;;
21334;SDS011;10826;52.536;13.432;2022-12-16T00:58:16;43.60;;;21.17;;
21334;SDS011;10826;52.536;13.432;2022-12-16T01:00:42;46.80;;;22.00;;
21334;SDS011;10826;52.536;13.432;2022-12-16T01:03:08;43.13;;;21.53;;
21334;SDS011;10826;52.536;13.432;2022-12-16T01:05:36;46.67;;;21.73;;
21334;SDS011;10826;52.536;13.432;2022-12-16T01:08:03;42.23;;;20.37;;
21334;SDS011;10826;52.536;13.432;2022-12-16T01:10:29;40.67;;;20.30;;
21334;SDS011;10826;52.536;13.432;2022-12-16T01:12:54;41.43;;;21.40;;
21334;SDS011;10826;52.536;13.432;2022-12-16T01:15:20;49.43;;;22.03;;
21334;SDS011;10826;52.536;13.432;2022-12-16T01:17:46;42.20;;;20.30;;
21334;SDS011;10826;52.536;13.432;2022-12-16T01:20:12;40.10;;;20.50;;
21334;SDS011;10826;52.536;13.432;2022-12-16T01:22:38;48.10;;;21.87;;
21334;SDS011;10826;52.536;13.432;2022-12-16T01:25:04;47.17;;;22.60;;
21334;SDS011;10826;52.536;13.432;2022-12-16T01:27:31;43.03;;;21.40;;
21334;SDS011;10826;52.536;13.432;2022-12-16T01:29:56;47.30;;;21.93;;
21334;SDS011;10826;52.536;13.432;2022-12-16T01:32:22;43.07;;;20.80;;
21334;SDS011;10826;52.536;13.432;2022-12-16T01:34:52;42.33;;;21.27;;
21334;SDS011;10826;52.536;13.432;2022-12-16T01:37:18;40.23;;;19.67;;
21334;SDS011;10826;52.536;13.432;2022-12-16T01:39:45;49.00;;;21.30;;
21334;SDS011;10826;52.536;13.432;2022-12-16T01:42:15;44.90;;;21.27;;
21334;SDS011;10826;52.536;13.432;2022-12-16T01:44:45;39.30;;;19.97;;
21334;SDS011;10826;52.536;13.432;2022-12-16T01:47:17;38.57;;;20.47;;
21334;SDS011;10826;52.536;13.432;2022-12-16T01:49:54;42.17;;;21.43;;
21334;SDS011;10826;52.536;13.432;2022-12-16T01:52:28;38.50;;;21.13;;
21334;SDS011;10826;52.536;13.432;2022-12-16T01:55:34;40.93;;;20.37;;
21334;SDS011;10826;52.536;13.432;2022-12-16T01:57:58;45.97;;;20.87;;
21334;SDS011;10826;52.536;13.432;2022-12-16T02:00:32;43.80;;;20.43;;
21334;SDS011;10826;52.536;13.432;2022-12-16T02:03:00;44.53;;;20.70;;
21334;SDS011;10826;52.536;13.432;2022-12-16T02:05:26;46.93;;;21.40;;
21334;SDS011;10826;52.536;13.432;2022-12-16T02:07:55;38.10;;;20.37;;
21334;SDS011;10826;52.536;13.432;2022-12-16T02:10:41;38.07;;;20.53;;
21334;SDS011;10826;52.536;13.432;2022-12-16T02:13:43;41.13;;;21.00;;
21334;SDS011;10826;52.536;13.432;2022-12-16T02:19:46;39.07;;;20.10;;
21334;SDS011;10826;52.536;13.432;2022-12-16T02:38:06;42.00;;;20.43;;
21334;SDS011;10826;52.536;13.432;2022-12-16T02:40:42;38.33;;;17.97;;
21334;SDS011;10826;52.536;13.432;2022-12-16T02:43:21;41.97;;;19.40;;
21334;SDS011;10826;52.536;13.432;2022-12-16T02:46:20;36.63;;;18.73;;
21334;SDS011;10826;52.536;13.432;2022-12-16T02:48:51;41.13;;;19.60;;
21334;SDS011;10826;52.536;13.432;2022-12-16T02:51:18;39.77;;;19.43;;
21334;SDS011;10826;52.536;13.432;2022-12-16T02:53:46;36.77;;;19.50;;
21334;SDS011;10826;52.536;13.432;2022-12-16T02:56:22;38.77;;;20.07;;
21334;SDS011;10826;52.536;13.432;2022-12-16T02:59:28;41.57;;;19.17;;
21334;SDS011;10826;52.536;13.432;2022-12-16T03:02:18;37.03;;;20.20;;
21334;SDS011;10826;52.536;13.432;2022-12-16T03:04:57;38.27;;;20.20;;
21334;SDS011;10826;52.536;13.432;2022-12-16T03:07:39;36.13;;;18.90;;
21334;SDS011;10826;52.536;13.432;2022-12-16T03:10:09;37.37;;;18.93;;
21334;SDS011;10826;52.536;13.432;2022-12-16T03:12:41;41.53;;;20.30;;
21334;SDS011;10826;52.536;13.432;2022-12-16T03:15:10;43.43;;;20.70;;
21334;SDS011;10826;52.536;13.432;2022-12-16T03:17:40;43.60;;;21.87;;
21334;SDS011;10826;52.536;13.432;2022-12-16T03:20:17;38.97;;;18.80;;
21334;SDS011;10826;52.536;13.432;2022-12-16T03:22:53;39.43;;;20.17;;
21334;SDS011;10826;52.536;13.432;2022-12-16T03:25:26;41.23;;;20.07;;
21334;SDS011;10826;52.536;13.432;2022-12-16T03:30:32;42.10;;;20.10;;
21334;SDS011;10826;52.536;13.432;2022-12-16T03:33:07;36.77;;;19.03;;
21334;SDS011;10826;52.536;13.432;2022-12-16T03:35:58;38.03;;;18.93;;
21334;SDS011;10826;52.536;13.432;2022-12-16T03:38:32;39.00;;;18.53;;
21334;SDS011;10826;52.536;13.432;2022-12-16T03:41:00;45.80;;;19.27;;
21334;SDS011;10826;52.536;13.432;2022-12-16T03:43:29;38.73;;;19.50;;
21334;SDS011;10826;52.536;13.432;2022-12-16T03:45:56;36.83;;;20.37;;
21334;SDS011;10826;52.536;13.432;2022-12-16T03:48:28;37.80;;;18.47;;
21334;SDS011;10826;52.536;13.432;2022-12-16T03:50:55;39.37;;;19.30;;
21334;SDS011;10826;52.536;13.432;2022-12-16T03:53:21;42.57;;;19.30;;
21334;SDS011;10826;52.536;13.432;2022-12-16T03:55:50;37.80;;;18.53;;
21334;SDS011;10826;52.536;13.432;2022-12-16T03:58:16;42.83;;;20.37;;
21334;SDS011;10826;52.536;13.432;2022-12-16T04:00:42;38.07;;;19.20;;
21334;SDS011;10826;52.536;13.432;2022-12-16T04:03:08;41.57;;;20.00;;
21334;SDS011;10826;52.536;13.432;2022-12-16T04:05:34;35.37;;;19.27;;
21334;SDS011;10826;52.536;13.432;2022-12-16T04:08:00;43.57;;;19.93;;
21334;SDS011;10826;52.536;13.432;2022-12-16T04:10:25;46.50;;;20.70;;
21334;SDS011;10826;52.536;13.432;2022-12-16T04:13:10;37.67;;;19.70;;
21334;SDS011;10826;52.536;13.432;2022-12-16T04:15:54;39.40;;;19.37;;
21334;SDS011;10826;52.536;13.432;2022-12-16T04:18:39;36.07;;;18.13;;
21334;SDS011;10826;52.536;13.432;2022-12-16T04:21:24;41.57;;;20.13;;
21334;SDS011;10826;52.536;13.432;2022-12-16T04:24:12;37.07;;;17.93;;
21334;SDS011;10826;52.536;13.432;2022-12-16T04:26:43;36.53;;;19.03;;
21334;SDS011;10826;52.536;13.432;2022-12-16T04:29:28;40.80;;;20.13;;
21334;SDS011;10826;52.536;13.432;2022-12-16T04:31:54;42.07;;;19.73;;
21334;SDS011;10826;52.536;13.432;2022-12-16T04:34:21;37.63;;;19.40;;
21334;SDS011;10826;52.536;13.432;2022-12-16T04:36:51;36.10;;;19.37;;
21334;SDS011;10826;52.536;13.432;2022-12-16T04:39:37;41.53;;;18.80;;
21334;SDS011;10826;52.536;13.432;2022-12-16T04:42:22;38.73;;;20.10;;
21334;SDS011;10826;52.536;13.432;2022-12-16T04:45:06;35.43;;;19.63;;
21334;SDS011;10826;52.536;13.432;2022-12-16T04:47:52;44.77;;;21.17;;
21334;SDS011;10826;52.536;13.432;2022-12-16T04:50:37;39.67;;;19.10;;
21334;SDS011;10826;52.536;13.432;2022-12-16T04:53:23;42.47;;;19.43;;
21334;SDS011;10826;52.536;13.432;2022-12-16T04:56:08;43.77;;;20.47;;
21334;SDS011;10826;52.536;13.432;2022-12-16T04:58:53;37.10;;;18.90;;
21334;SDS011;10826;52.536;13.432;2022-12-16T05:01:37;37.87;;;18.83;;
21334;SDS011;10826;52.536;13.432;2022-12-16T05:04:22;40.23;;;18.87;;
21334;SDS011;10826;52.536;13.432;2022-12-16T05:07:07;42.93;;;18.80;;
21334;SDS011;10826;52.536;13.432;2022-12-16T05:09:52;42.57;;;20.40;;
21334;SDS011;10826;52.536;13.432;2022-12-16T05:12:36;38.40;;;18.87;;
21334;SDS011;10826;52.536;13.432;2022-12-16T05:15:20;37.93;;;19.67;;
21334;SDS011;10826;52.536;13.432;2022-12-16T05:18:09;37.80;;;18.93;;
21334;SDS011;10826;52.536;13.432;2022-12-16T05:20:58;50.27;;;19.30;;
21334;SDS011;10826;52.536;13.432;2022-12-16T05:23:44;40.80;;;20.33;;
21334;SDS011;10826;52.536;13.432;2022-12-16T05:26:29;41.53;;;18.57;;
21334;SDS011;10826;52.536;13.432;2022-12-16T05:29:13;39.03;;;19.17;;
21334;SDS011;10826;52.536;13.432;2022-12-16T05:31:58;41.20;;;19.00;;
21334;SDS011;10826;52.536;13.432;2022-12-16T05:34:42;37.30;;;19.07;;
21334;SDS011;10826;52.536;13.432;2022-12-16T05:37:26;39.40;;;18.30;;
21334;SDS011;10826;52.536;13.432;2022-12-16T05:40:11;35.17;;;18.03;;
21334;SDS011;10826;52.536;13.432;2022-12-16T05:42:56;40.70;;;19.70;;
21334;SDS011;10826;52.536;13.432;2022-12-16T05:45:40;40.77;;;18.77;;
21334;SDS011;10826;52.536;13.432;2022-12-16T05:48:25;36.93;;;18.83;;
21334;SDS011;10826;52.536;13.432;2022-12-16T05:51:10;39.93;;;19.83;;
21334;SDS011;10826;52.536;13.432;2022-12-16T05:53:55;40.73;;;20.30;;
21334;SDS011;10826;52.536;13.432;2022-12-16T05:56:39;39.00;;;19.83;;
21334;SDS011;10826;52.536;13.432;2022-12-16T05:59:24;42.33;;;19.13;;
21334;SDS011;10826;52.536;13.432;2022-12-16T06:02:08;42.30;;;20.63;;
21334;SDS011;10826;52.536;13.432;2022-12-16T06:04:53;44.00;;;19.73;;
21334;SDS011;10826;52.536;13.432;2022-12-16T06:07:37;40.53;;;19.37;;
21334;SDS011;10826;52.536;13.432;2022-12-16T06:10:21;39.50;;;19.13;;
21334;SDS011;10826;52.536;13.432;2022-12-16T06:13:06;41.20;;;19.23;;
21334;SDS011;10826;52.536;13.432;2022-12-16T06:15:51;45.73;;;20.60;;
21334;SDS011;10826;52.536;13.432;2022-12-16T06:18:38;41.53;;;19.53;;
21334;SDS011;10826;52.536;13.432;2022-12-16T06:21:23;41.23;;;20.43;;
21334;SDS011;10826;52.536;13.432;2022-12-16T06:24:07;37.47;;;19.57;;
21334;SDS011;10826;52.536;13.432;2022-12-16T06:26:52;40.00;;;19.57;;
21334;SDS011;10826;52.536;13.432;2022-12-16T06:29:36;37.60;;;18.77;;
21334;SDS011;10826;52.536;13.432;2022-12-16T06:32:20;38.07;;;19.67;;
21334;SDS011;10826;52.536;13.432;2022-12-16T06:35:05;43.03;;;18.90;;
21334;SDS011;10826;52.536;13.432;2022-12-16T06:37:49;42.03;;;18.87;;
21334;SDS011;10826;52.536;13.432;2022-12-16T06:40:33;42.33;;;19.87;;
21334;SDS011;10826;52.536;13.432;2022-12-16T06:43:18;43.40;;;20.20;;
21334;SDS011;10826;52.536;13.432;2022-12-16T06:46:03;42.77;;;20.60;;
21334;SDS011;10826;52.536;13.432;2022-12-16T06:48:50;41.63;;;21.17;;
21334;SDS011;10826;52.536;13.432;2022-12-16T06:51:35;42.33;;;19.30;;
21334;SDS011;10826;52.536;13.432;2022-12-16T06:54:20;41.27;;;20.40;;
21334;SDS011;10826;52.536;13.432;2022-12-16T06:57:04;43.97;;;20.70;;
21334;SDS011;10826;52.536;13.432;2022-12-16T06:59:48;45.93;;;20.80;;
21334;SDS011;10826;52.536;13.432;2022-12-16T07:02:50;42.30;;;20.70;;
21334;SDS011;10826;52.536;13.432;2022-12-16T07:05:35;45.03;;;20.43;;
21334;SDS011;10826;52.536;13.432;2022-12-16T07:08:19;42.47;;;20.33;;
21334;SDS011;10826;52.536;13.432;2022-12-16T07:11:04;45.67;;;22.17;;
21334;SDS011;10826;52.536;13.432;2022-12-16T07:13:51;42.07;;;20.80;;
21334;SDS011;10826;52.536;13.432;2022-12-16T07:16:35;49.57;;;21.87;;
21334;SDS011;10826;52.536;13.432;2022-12-16T07:19:20;41.77;;;22.13;;
21334;SDS011;10826;52.536;13.432;2022-12-16T07:22:05;50.40;;;23.03;;
21334;SDS011;10826;52.536;13.432;2022-12-16T07:24:49;45.30;;;22.63;;
21334;SDS011;10826;52.536;13.432;2022-12-16T07:27:33;48.97;;;21.57;;
21334;SDS011;10826;52.536;13.432;2022-12-16T07:30:17;42.70;;;20.80;;
21334;SDS011;10826;52.536;13.432;2022-12-16T07:33:02;47.27;;;20.93;;
21334;SDS011;10826;52.536;13.432;2022-12-16T07:35:46;48.83;;;22.20;;
21334;SDS011;10826;52.536;13.432;2022-12-16T07:38:31;40.23;;;22.17;;
21334;SDS011;10826;52.536;13.432;2022-12-16T07:41:15;49.13;;;22.00;;
21334;SDS011;10826;52.536;13.432;2022-12-16T07:44:00;43.70;;;20.93;;
21334;SDS011;10826;52.536;13.432;2022-12-16T07:46:44;52.17;;;23.10;;
21334;SDS011;10826;52.536;13.432;2022-12-16T07:49:29;46.77;;;22.27;;
21334;SDS011;10826;52.536;13.432;2022-12-16T07:52:18;48.20;;;22.17;;
21334;SDS011;10826;52.536;13.432;2022-12-16T07:55:03;54.77;;;23.67;;
21334;SDS011;10826;52.536;13.432;2022-12-16T07:57:55;43.33;;;21.43;;
21334;SDS011;10826;52.536;13.432;2022-12-16T08:00:39;40.60;;;20.70;;
21334;SDS011;10826;52.536;13.432;2022-12-16T08:03:24;46.07;;;23.13;;
21334;SDS011;10826;52.536;13.432;2022-12-16T08:06:09;55.63;;;24.77;;
21334;SDS011;10826;52.536;13.432;2022-12-16T08:08:53;51.90;;;24.17;;
21334;SDS011;10826;52.536;13.432;2022-12-16T08:11:38;47.10;;;23.60;;
21334;SDS011;10826;52.536;13.432;2022-12-16T08:14:22;50.53;;;22.70;;
21334;SDS011;10826;52.536;13.432;2022-12-16T08:17:07;48.87;;;23.20;;
21334;SDS011;10826;52.536;13.432;2022-12-16T08:19:51;48.47;;;22.90;;
21334;SDS011;10826;52.536;13.432;2022-12-16T08:22:35;46.10;;;22.00;;
21334;SDS011;10826;52.536;13.432;2022-12-16T08:25:22;50.80;;;23.13;;
21334;SDS011;10826;52.536;13.432;2022-12-16T08:28:06;44.93;;;23.13;;
21334;SDS011;10826;52.536;13.432;2022-12-16T08:30:51;46.80;;;22.80;;
21334;SDS011;10826;52.536;13.432;2022-12-16T08:33:35;51.90;;;22.00;;
21334;SDS011;10826;52.536;13.432;2022-12-16T08:36:20;46.20;;;21.93;;
21334;SDS011;10826;52.536;13.432;2022-12-16T08:39:05;49.10;;;21.77;;
21334;SDS011;10826;52.536;13.432;2022-12-16T08:41:52;40.83;;;21.33;;
21334;SDS011;10826;52.536;13.432;2022-12-16T08:44:37;46.07;;;20.93;;
21334;SDS011;10826;52.536;13.432;2022-12-16T08:47:21;43.07;;;21.63;;
21334;SDS011;10826;52.536;13.432;2022-12-16T08:50:06;45.70;;;21.50;;
21334;SDS011;10826;52.536;13.432;2022-12-16T08:52:51;47.30;;;20.67;;
21334;SDS011;10826;52.536;13.432;2022-12-16T08:55:37;46.03;;;20.50;;
21334;SDS011;10826;52.536;13.432;2022-12-16T08:58:21;44.17;;;22.10;;
21334;SDS011;10826;52.536;13.432;2022-12-16T09:01:06;44.80;;;20.70;;
21334;SDS011;10826;52.536;13.432;2022-12-16T09:03:50;48.03;;;22.57;;
21334;SDS011;10826;52.536;13.432;2022-12-16T09:06:34;47.90;;;21.87;;
21334;SDS011;10826;52.536;13.432;2022-12-16T09:09:19;53.93;;;21.10;;
21334;SDS011;10826;52.536;13.432;2022-12-16T09:12:03;43.10;;;20.83;;
21334;SDS011;10826;52.536;13.432;2022-12-16T09:14:48;47.60;;;21.80;;
21334;SDS011;10826;52.536;13.432;2022-12-16T09:17:32;45.90;;;21.87;;
21334;SDS011;10826;52.536;13.432;2022-12-16T09:20:17;50.07;;;22.37;;
21334;SDS011;10826;52.536;13.432;2022-12-16T09:23:02;47.33;;;22.83;;
21334;SDS011;10826;52.536;13.432;2022-12-16T09:25:47;51.90;;;25.20;;
21334;SDS011;10826;52.536;13.432;2022-12-16T09:28:31;48.60;;;23.73;;
21334;SDS011;10826;52.536;13.432;2022-12-16T09:31:16;47.77;;;23.13;;
21334;SDS011;10826;52.536;13.432;2022-12-16T09:34:00;49.30;;;23.07;;
21334;SDS011;10826;52.536;13.432;2022-12-16T09:36:45;41.60;;;22.17;;
21334;SDS011;10826;52.536;13.432;2022-12-16T09:39:29;44.13;;;21.83;;
21334;SDS011;10826;52.536;13.432;2022-12-16T09:51:36;39.93;;;20.77;;
21334;SDS011;10826;52.536;13.432;2022-12-16T09:54:22;50.70;;;21.97;;
21334;SDS011;10826;52.536;13.432;2022-12-16T09:57:12;46.33;;;21.23;;
21334;SDS011;10826;52.536;13.432;2022-12-16T10:00:00;47.10;;;21.93;;
21334;SDS011;10826;52.536;13.432;2022-12-16T10:02:50;46.13;;;22.80;;
21334;SDS011;10826;52.536;13.432;2022-12-16T10:05:37;49.37;;;23.70;;
21334;SDS011;10826;52.536;13.432;2022-12-16T10:08:45;47.20;;;23.67;;
21334;SDS011;10826;52.536;13.432;2022-12-16T10:12:23;42.13;;;22.33;;
21334;SDS011;10826;52.536;13.432;2022-12-16T10:15:43;47.40;;;21.90;;
21334;SDS011;10826;52.536;13.432;2022-12-16T10:22:05;42.00;;;20.67;;
21334;SDS011;10826;52.536;13.432;2022-12-16T10:25:07;42.40;;;21.47;;
21334;SDS011;10826;52.536;13.432;2022-12-16T10:28:01;45.63;;;22.33;;
21334;SDS011;10826;52.536;13.432;2022-12-16T10:30:57;41.30;;;21.90;;
21334;SDS011;10826;52.536;13.432;2022-12-16T10:33:44;47.00;;;22.30;;
21334;SDS011;10826;52.536;13.432;2022-12-16T10:36:34;49.57;;;22.33;;
21334;SDS011;10826;52.536;13.432;2022-12-16T10:39:23;45.37;;;22.80;;
21334;SDS011;10826;52.536;13.432;2022-12-16T10:42:32;47.70;;;22.73;;
21334;SDS011;10826;52.536;13.432;2022-12-16T10:45:30;45.67;;;22.00;;
21334;SDS011;10826;52.536;13.432;2022-12-16T10:48:29;48.07;;;22.90;;
21334;SDS011;10826;52.536;13.432;2022-12-16T10:51:17;41.00;;;22.33;;
21334;SDS011;10826;52.536;13.432;2022-12-16T11:00:44;44.30;;;22.47;;
21334;SDS011;10826;52.536;13.432;2022-12-16T11:03:32;45.30;;;22.10;;
21334;SDS011;10826;52.536;13.432;2022-12-16T11:06:41;43.70;;;22.33;;
21334;SDS011;10826;52.536;13.432;2022-12-16T11:09:31;49.60;;;24.07;;
21334;SDS011;10826;52.536;13.432;2022-12-16T11:12:27;45.23;;;23.07;;
21334;SDS011;10826;52.536;13.432;2022-12-16T11:15:25;43.93;;;23.57;;
21334;SDS011;10826;52.536;13.432;2022-12-16T11:18:20;49.10;;;24.73;;
21334;SDS011;10826;52.536;13.432;2022-12-16T11:21:15;49.83;;;24.63;;
21334;SDS011;10826;52.536;13.432;2022-12-16T11:24:12;53.93;;;23.97;;
21334;SDS011;10826;52.536;13.432;2022-12-16T11:27:09;47.97;;;23.77;;
21334;SDS011;10826;52.536;13.432;2022-12-16T11:33:05;45.67;;;22.63;;
21334;SDS011;10826;52.536;13.432;2022-12-16T11:36:21;49.53;;;24.10;;
21334;SDS011;10826;52.536;13.432;2022-12-16T11:39:12;46.10;;;24.73;;
21334;SDS011;10826;52.536;13.432;2022-12-16T11:42:01;47.23;;;24.00;;
21334;SDS011;10826;52.536;13.432;2022-12-16T11:44:49;49.03;;;24.03;;
21334;SDS011;10826;52.536;13.432;2022-12-16T11:50:30;54.20;;;24.50;;
21334;SDS011;10826;52.536;13.432;2022-12-16T11:56:29;45.97;;;24.70;;
21334;SDS011;10826;52.536;13.432;2022-12-16T12:05:55;48.70;;;23.30;;
21334;SDS011;10826;52.536;13.432;2022-12-16T12:09:02;45.30;;;22.23;;
21334;SDS011;10826;52.536;13.432;2022-12-16T12:12:15;42.00;;;22.10;;
21334;SDS011;10826;52.536;13.432;2022-12-16T12:15:27;41.87;;;21.57;;
21334;SDS011;10826;52.536;13.432;2022-12-16T12:24:38;39.07;;;20.57;;
21334;SDS011;10826;52.536;13.432;2022-12-16T12:28:15;39.83;;;21.03;;
21334;SDS011;10826;52.536;13.432;2022-12-16T12:41:55;46.47;;;22.27;;
21334;SDS011;10826;52.536;13.432;2022-12-16T12:48:14;42.60;;;21.67;;
21334;SDS011;10826;52.536;13.432;2022-12-16T12:51:25;42.23;;;21.87;;
21334;SDS011;10826;52.536;13.432;2022-12-16T12:54:33;38.07;;;20.20;;
21334;SDS011;10826;52.536;13.432;2022-12-16T12:57:30;50.37;;;23.40;;
21334;SDS011;10826;52.536;13.432;2022-12-16T13:00:20;45.13;;;22.97;;
21334;SDS011;10826;52.536;13.432;2022-12-16T13:03:13;37.67;;;21.50;;
21334;SDS011;10826;52.536;13.432;2022-12-16T13:06:18;39.43;;;21.07;;
21334;SDS011;10826;52.536;13.432;2022-12-16T13:12:25;38.93;;;20.60;;
21334;SDS011;10826;52.536;13.432;2022-12-16T13:18:23;41.53;;;21.93;;
21334;SDS011;10826;52.536;13.432;2022-12-16T13:24:27;38.47;;;21.37;;
21334;SDS011;10826;52.536;13.432;2022-12-16T13:27:20;42.60;;;21.33;;
21334;SDS011;10826;52.536;13.432;2022-12-16T13:33:00;44.60;;;21.83;;
21334;SDS011;10826;52.536;13.432;2022-12-16T13:35:57;60.20;;;28.17;;
21334;SDS011;10826;52.536;13.432;2022-12-16T13:38:47;43.13;;;22.53;;
21334;SDS011;10826;52.536;13.432;2022-12-16T13:50:35;47.23;;;23.20;;
21334;SDS011;10826;52.536;13.432;2022-12-16T13:53:29;40.87;;;22.60;;
21334;SDS011;10826;52.536;13.432;2022-12-16T13:56:34;43.97;;;23.70;;
21334;SDS011;10826;52.536;13.432;2022-12-16T13:59:25;46.23;;;22.20;;
21334;SDS011;10826;52.536;13.432;2022-12-16T14:02:35;42.87;;;21.93;;
21334;SDS011;10826;52.536;13.432;2022-12-16T14:05:36;48.47;;;24.90;;
21334;SDS011;10826;52.536;13.432;2022-12-16T14:08:27;44.13;;;23.03;;
21334;SDS011;10826;52.536;13.432;2022-12-16T14:11:42;41.93;;;22.30;;
21334;SDS011;10826;52.536;13.432;2022-12-16T14:14:39;48.10;;;23.50;;
21334;SDS011;10826;52.536;13.432;2022-12-16T14:17:36;47.53;;;22.47;;
21334;SDS011;10826;52.536;13.432;2022-12-16T14:20:42;44.57;;;22.40;;
21334;SDS011;10826;52.536;13.432;2022-12-16T14:23:40;54.40;;;25.87;;
21334;SDS011;10826;52.536;13.432;2022-12-16T14:26:35;44.40;;;23.77;;
21334;SDS011;10826;52.536;13.432;2022-12-16T14:29:25;53.10;;;25.03;;
21334;SDS011;10826;52.536;13.432;2022-12-16T14:32:20;46.40;;;23.73;;
21334;SDS011;10826;52.536;13.432;2022-12-16T14:35:15;53.40;;;26.27;;
21334;SDS011;10826;52.536;13.432;2022-12-16T14:41:22;47.00;;;23.50;;
21334;SDS011;10826;52.536;13.432;2022-12-16T14:44:17;46.37;;;24.40;;
21334;SDS011;10826;52.536;13.432;2022-12-16T14:47:14;68.07;;;23.37;;
21334;SDS011;10826;52.536;13.432;2022-12-16T14:50:14;56.40;;;24.93;;
21334;SDS011;10826;52.536;13.432;2022-12-16T14:56:24;53.30;;;25.57;;
21334;SDS011;10826;52.536;13.432;2022-12-16T14:59:17;50.00;;;22.90;;
21334;SDS011;10826;52.536;13.432;2022-12-16T15:02:10;49.17;;;23.83;;
21334;SDS011;10826;52.536;13.432;2022-12-16T15:05:13;46.37;;;23.97;;
21334;SDS011;10826;52.536;13.432;2022-12-16T15:07:58;56.43;;;26.23;;
21334;SDS011;10826;52.536;13.432;2022-12-16T15:10:44;43.03;;;23.43;;
21334;SDS011;10826;52.536;13.432;2022-12-16T15:13:29;54.13;;;24.60;;
21334;SDS011;10826;52.536;13.432;2022-12-16T15:16:17;50.17;;;24.43;;
21334;SDS011;10826;52.536;13.432;2022-12-16T15:19:19;45.93;;;23.37;;
21334;SDS011;10826;52.536;13.432;2022-12-16T15:22:13;52.17;;;24.70;;
21334;SDS011;10826;52.536;13.432;2022-12-16T15:24:59;60.00;;;26.97;;
21334;SDS011;10826;52.536;13.432;2022-12-16T15:27:52;51.90;;;24.43;;
21334;SDS011;10826;52.536;13.432;2022-12-16T15:30:42;49.93;;;25.07;;
21334;SDS011;10826;52.536;13.432;2022-12-16T15:33:30;52.47;;;25.13;;
21334;SDS011;10826;52.536;13.432;2022-12-16T15:36:32;52.93;;;25.37;;
21334;SDS011;10826;52.536;13.432;2022-12-16T15:39:33;52.00;;;26.10;;
21334;SDS011;10826;52.536;13.432;2022-12-16T15:42:23;53.97;;;26.43;;
21334;SDS011;10826;52.536;13.432;2022-12-16T15:45:19;47.97;;;24.87;;
21334;SDS011;10826;52.536;13.432;2022-12-16T15:48:22;51.83;;;25.73;;
21334;SDS011;10826;52.536;13.432;2022-12-16T15:51:30;50.63;;;24.83;;
21334;SDS011;10826;52.536;13.432;2022-12-16T15:54:26;62.53;;;27.50;;
21334;SDS011;10826;52.536;13.432;2022-12-16T16:00:34;47.60;;;24.53;;
21334;SDS011;10826;52.536;13.432;2022-12-16T16:03:28;46.77;;;24.63;;
21334;SDS011;10826;52.536;13.432;2022-12-16T16:06:22;50.30;;;26.33;;
21334;SDS011;10826;52.536;13.432;2022-12-16T16:12:08;58.30;;;25.87;;
21334;SDS011;10826;52.536;13.432;2022-12-16T16:14:58;57.13;;;27.70;;
21334;SDS011;10826;52.536;13.432;2022-12-16T16:17:42;57.80;;;26.60;;
21334;SDS011;10826;52.536;13.432;2022-12-16T16:20:30;59.43;;;26.43;;
21334;SDS011;10826;52.536;13.432;2022-12-16T16:23:14;55.10;;;26.70;;
21334;SDS011;10826;52.536;13.432;2022-12-16T16:25:59;55.90;;;26.00;;
21334;SDS011;10826;52.536;13.432;2022-12-16T16:28:44;50.37;;;26.93;;
21334;SDS011;10826;52.536;13.432;2022-12-16T16:31:28;49.23;;;25.60;;
21334;SDS011;10826;52.536;13.432;2022-12-16T16:34:13;56.87;;;26.77;;
21334;SDS011;10826;52.536;13.432;2022-12-16T16:36:58;54.13;;;24.37;;
21334;SDS011;10826;52.536;13.432;2022-12-16T16:39:43;53.40;;;26.13;;
21334;SDS011;10826;52.536;13.432;2022-12-16T16:42:28;51.50;;;26.37;;
21334;SDS011;10826;52.536;13.432;2022-12-16T16:45:13;55.60;;;27.00;;
21334;SDS011;10826;52.536;13.432;2022-12-16T16:48:19;55.47;;;26.63;;
21334;SDS011;10826;52.536;13.432;2022-12-16T16:51:04;52.50;;;26.67;;
21334;SDS011;10826;52.536;13.432;2022-12-16T16:53:49;58.00;;;28.03;;
21334;SDS011;10826;52.536;13.432;2022-12-16T16:56:34;55.07;;;25.90;;
21334;SDS011;10826;52.536;13.432;2022-12-16T16:59:21;50.57;;;26.60;;
21334;SDS011;10826;52.536;13.432;2022-12-16T17:02:17;54.40;;;26.93;;
21334;SDS011;10826;52.536;13.432;2022-12-16T17:05:05;55.77;;;27.73;;
21334;SDS011;10826;52.536;13.432;2022-12-16T17:07:51;57.23;;;27.80;;
21334;SDS011;10826;52.536;13.432;2022-12-16T17:10:35;52.03;;;25.93;;
21334;SDS011;10826;52.536;13.432;2022-12-16T17:13:20;53.90;;;28.20;;
21334;SDS011;10826;52.536;13.432;2022-12-16T17:16:04;56.20;;;26.73;;
21334;SDS011;10826;52.536;13.432;2022-12-16T17:18:49;55.23;;;26.90;;
21334;SDS011;10826;52.536;13.432;2022-12-16T17:21:33;51.60;;;27.20;;
21334;SDS011;10826;52.536;13.432;2022-12-16T17:24:18;66.87;;;29.23;;
21334;SDS011;10826;52.536;13.432;2022-12-16T17:27:21;57.87;;;27.57;;
21334;SDS011;10826;52.536;13.432;2022-12-16T17:30:20;59.20;;;28.53;;
21334;SDS011;10826;52.536;13.432;2022-12-16T17:33:05;58.47;;;27.37;;
21334;SDS011;10826;52.536;13.432;2022-12-16T17:35:50;64.90;;;28.37;;
21334;SDS011;10826;52.536;13.432;2022-12-16T17:38:37;66.53;;;29.70;;
21334;SDS011;10826;52.536;13.432;2022-12-16T17:41:29;50.77;;;25.93;;